AAL1315 KDFW-TISX
Flight info
| Callsign | AAL1315 |
|---|---|
| Flight time | 4h 18m |
| Altitude | 33000 |
| Route | DARTZ9 TNV J87 IAH J86 LEV Q100 ROZZI/N0450F350 Q100 SRQ DCT OCTAL DCT OYSTA BR22V MAJUR DCT ZQA DCT DDP DCT YORUS DCT COVPI |
| Aircraft | B738/M-SDE2E3FGHIRWXY/LB1 |
Departure
| Time | 2026-05-05 15:59 |
|---|---|
| Airport | Dallas Fort Worth International Airport (KDFW) |
Arrival
| Time | 2026-05-05 20:17 |
|---|---|
| Airport | Henry E. Rohlsen Airport (TISX) |
| Time | Latitude | Longitude | Altitude | Speed | Heading |
|---|---|---|---|---|---|
| 2026-05-05 15:30 | 32.89710 | -97.04578 | 598 ft | 0 kts | 90° |
| 2026-05-05 15:45 | 32.89710 | -97.04582 | 598 ft | 2 kts | 86° |
| 2026-05-05 15:45 | 32.89708 | -97.04600 | 598 ft | 1 kts | 91° |
| 2026-05-05 15:45 | 32.89709 | -97.04611 | 599 ft | 2 kts | 89° |
| 2026-05-05 15:45 | 32.89706 | -97.04628 | 600 ft | 2 kts | 71° |
| 2026-05-05 15:46 | 32.89700 | -97.04645 | 600 ft | 2 kts | 59° |
| 2026-05-05 15:46 | 32.89691 | -97.04658 | 601 ft | 2 kts | 46° |
| 2026-05-05 15:46 | 32.89680 | -97.04671 | 601 ft | 2 kts | 33° |
| 2026-05-05 15:46 | 32.89671 | -97.04677 | 601 ft | 0 kts | 24° |
| 2026-05-05 15:47 | 32.89665 | -97.04679 | 601 ft | 0 kts | 22° |
| 2026-05-05 15:49 | 32.89671 | -97.04678 | 601 ft | 3 kts | 17° |
| 2026-05-05 15:49 | 32.89715 | -97.04687 | 601 ft | 8 kts | 336° |
| 2026-05-05 15:50 | 32.89760 | -97.04715 | 602 ft | 6 kts | 327° |
| 2026-05-05 15:50 | 32.89791 | -97.04742 | 602 ft | 5 kts | 323° |
| 2026-05-05 15:50 | 32.89840 | -97.04764 | 603 ft | 8 kts | 352° |
| 2026-05-05 15:50 | 32.89898 | -97.04765 | 604 ft | 8 kts | 359° |
| 2026-05-05 15:51 | 32.89953 | -97.04767 | 605 ft | 7 kts | 359° |
| 2026-05-05 15:51 | 32.90020 | -97.04768 | 606 ft | 14 kts | 0° |
| 2026-05-05 15:51 | 32.90168 | -97.04765 | 606 ft | 28 kts | 1° |
| 2026-05-05 15:51 | 32.90375 | -97.04765 | 605 ft | 29 kts | 0° |
| 2026-05-05 15:52 | 32.90583 | -97.04764 | 601 ft | 29 kts | 359° |
| 2026-05-05 15:52 | 32.90788 | -97.04760 | 597 ft | 22 kts | 1° |
| 2026-05-05 15:52 | 32.90889 | -97.04752 | 595 ft | 11 kts | 31° |
| 2026-05-05 15:52 | 32.90908 | -97.04660 | 593 ft | 12 kts | 92° |
| 2026-05-05 15:53 | 32.90910 | -97.04527 | 593 ft | 23 kts | 90° |
| 2026-05-05 15:53 | 32.90904 | -97.04266 | 592 ft | 39 kts | 93° |
| 2026-05-05 15:53 | 32.90906 | -97.03922 | 590 ft | 40 kts | 89° |
| 2026-05-05 15:53 | 32.90904 | -97.03616 | 589 ft | 35 kts | 90° |
| 2026-05-05 15:54 | 32.90903 | -97.03406 | 585 ft | 20 kts | 91° |
| 2026-05-05 15:54 | 32.90923 | -97.03329 | 585 ft | 8 kts | 37° |
| 2026-05-05 15:54 | 32.90981 | -97.03312 | 584 ft | 10 kts | 8° |
| 2026-05-05 15:54 | 32.91052 | -97.03278 | 582 ft | 11 kts | 11° |
| 2026-05-05 15:55 | 32.91136 | -97.03276 | 581 ft | 12 kts | 359° |
| 2026-05-05 15:55 | 32.91249 | -97.03274 | 579 ft | 21 kts | 1° |
| 2026-05-05 15:55 | 32.91404 | -97.03275 | 576 ft | 22 kts | 0° |
| 2026-05-05 15:55 | 32.91531 | -97.03267 | 574 ft | 9 kts | 19° |
| 2026-05-05 15:56 | 32.91558 | -97.03207 | 572 ft | 8 kts | 87° |
| 2026-05-05 15:56 | 32.91559 | -97.03127 | 572 ft | 12 kts | 90° |
| 2026-05-05 15:56 | 32.91559 | -97.03114 | 571 ft | 0 kts | 90° |
| 2026-05-05 15:56 | 32.91559 | -97.03109 | 571 ft | 1 kts | 90° |
| 2026-05-05 15:57 | 32.91559 | -97.03104 | 571 ft | 0 kts | 90° |
| 2026-05-05 15:57 | 32.91559 | -97.03060 | 570 ft | 12 kts | 91° |
| 2026-05-05 15:57 | 32.91546 | -97.02988 | 569 ft | 4 kts | 144° |
| 2026-05-05 15:57 | 32.91532 | -97.02984 | 569 ft | 0 kts | 180° |
| 2026-05-05 15:58 | 32.91466 | -97.02981 | 569 ft | 37 kts | 179° |
| 2026-05-05 15:58 | 32.90975 | -97.02994 | 573 ft | 102 kts | 182° |
| 2026-05-05 15:58 | 32.90081 | -97.03001 | 573 ft | 155 kts | 180° |
| 2026-05-05 15:58 | 32.88961 | -97.02941 | 1082 ft | 163 kts | 181° |
| 2026-05-05 15:59 | 32.87811 | -97.02879 | 1735 ft | 167 kts | 181° |
| 2026-05-05 15:59 | 32.86667 | -97.02854 | 2333 ft | 169 kts | 189° |
| 2026-05-05 15:59 | 32.85431 | -97.02956 | 2630 ft | 186 kts | 189° |
| 2026-05-05 15:59 | 32.84094 | -97.03016 | 2954 ft | 202 kts | 186° |
| 2026-05-05 16:00 | 32.82624 | -97.03029 | 3304 ft | 220 kts | 185° |
| 2026-05-05 16:00 | 32.81036 | -97.03026 | 3690 ft | 236 kts | 185° |
| 2026-05-05 16:00 | 32.79355 | -97.03025 | 4204 ft | 247 kts | 185° |
| 2026-05-05 16:00 | 32.77610 | -97.03025 | 4774 ft | 255 kts | 185° |
| 2026-05-05 16:01 | 32.75825 | -97.03025 | 5400 ft | 260 kts | 185° |
| 2026-05-05 16:01 | 32.73995 | -97.03025 | 6027 ft | 265 kts | 185° |
| 2026-05-05 16:01 | 32.72138 | -97.03025 | 6655 ft | 270 kts | 185° |
| 2026-05-05 16:01 | 32.70256 | -97.02818 | 7296 ft | 278 kts | 172° |
| 2026-05-05 16:02 | 32.68382 | -97.02058 | 7816 ft | 291 kts | 161° |
| 2026-05-05 16:02 | 32.66540 | -97.01043 | 8389 ft | 297 kts | 159° |
| 2026-05-05 16:02 | 32.64671 | -96.99976 | 9047 ft | 300 kts | 160° |
| 2026-05-05 16:02 | 32.62764 | -96.98935 | 9705 ft | 301 kts | 161° |
| 2026-05-05 16:03 | 32.60862 | -96.97941 | 10292 ft | 305 kts | 162° |
| 2026-05-05 16:03 | 32.58835 | -96.96931 | 10530 ft | 322 kts | 163° |
| 2026-05-05 16:03 | 32.56719 | -96.95911 | 10858 ft | 336 kts | 163° |
| 2026-05-05 16:03 | 32.54525 | -96.94817 | 11145 ft | 352 kts | 162° |
| 2026-05-05 16:04 | 32.52215 | -96.93614 | 11425 ft | 367 kts | 161° |
| 2026-05-05 16:04 | 32.49855 | -96.92361 | 11880 ft | 375 kts | 161° |
| 2026-05-05 16:04 | 32.47493 | -96.91097 | 12437 ft | 380 kts | 161° |
| 2026-05-05 16:04 | 32.45071 | -96.89806 | 13024 ft | 384 kts | 161° |
| 2026-05-05 16:05 | 32.42604 | -96.88498 | 13637 ft | 387 kts | 162° |
| 2026-05-05 16:05 | 32.40141 | -96.87197 | 14243 ft | 391 kts | 162° |
| 2026-05-05 16:05 | 32.37662 | -96.85893 | 14822 ft | 395 kts | 162° |
| 2026-05-05 16:05 | 32.35142 | -96.84571 | 15419 ft | 399 kts | 162° |
| 2026-05-05 16:06 | 32.32591 | -96.83236 | 15940 ft | 405 kts | 162° |
| 2026-05-05 16:06 | 32.30014 | -96.81888 | 16533 ft | 409 kts | 163° |
| 2026-05-05 16:06 | 32.27399 | -96.80567 | 17157 ft | 409 kts | 165° |
| 2026-05-05 16:06 | 32.24728 | -96.79408 | 17687 ft | 411 kts | 168° |
| 2026-05-05 16:07 | 32.21993 | -96.78349 | 18212 ft | 414 kts | 170° |
| 2026-05-05 16:07 | 32.19245 | -96.77333 | 18794 ft | 416 kts | 171° |
| 2026-05-05 16:07 | 32.16458 | -96.76307 | 19255 ft | 422 kts | 171° |
| 2026-05-05 16:07 | 32.13641 | -96.75255 | 19771 ft | 426 kts | 171° |
| 2026-05-05 16:08 | 32.10812 | -96.74184 | 20296 ft | 429 kts | 171° |
| 2026-05-05 16:08 | 32.07952 | -96.73089 | 20798 ft | 432 kts | 171° |
| 2026-05-05 16:08 | 32.05091 | -96.71986 | 21292 ft | 436 kts | 171° |
| 2026-05-05 16:08 | 32.02203 | -96.70871 | 21720 ft | 440 kts | 171° |
| 2026-05-05 16:09 | 31.99312 | -96.69752 | 22165 ft | 444 kts | 171° |
| 2026-05-05 16:09 | 31.96340 | -96.68603 | 22669 ft | 445 kts | 171° |
| 2026-05-05 16:09 | 31.93388 | -96.67461 | 22957 ft | 453 kts | 171° |
| 2026-05-05 16:09 | 31.90379 | -96.66299 | 23461 ft | 454 kts | 171° |
| 2026-05-05 16:10 | 31.87363 | -96.65133 | 23768 ft | 460 kts | 171° |
| 2026-05-05 16:10 | 31.84324 | -96.63960 | 24195 ft | 463 kts | 171° |
| 2026-05-05 16:10 | 31.81263 | -96.62775 | 24640 ft | 465 kts | 171° |
| 2026-05-05 16:10 | 31.78188 | -96.61588 | 25044 ft | 467 kts | 171° |
| 2026-05-05 16:11 | 31.75100 | -96.60393 | 25508 ft | 469 kts | 171° |
| 2026-05-05 16:11 | 31.65706 | -96.56771 | 26538 ft | 479 kts | 170° |
| 2026-05-05 16:12 | 31.62540 | -96.55551 | 26933 ft | 480 kts | 171° |
| 2026-05-05 16:12 | 31.56132 | -96.53088 | 27607 ft | 486 kts | 171° |
| 2026-05-05 16:13 | 31.46411 | -96.49377 | 28440 ft | 496 kts | 171° |
| 2026-05-05 16:13 | 31.43104 | -96.48136 | 28731 ft | 499 kts | 171° |
| 2026-05-05 16:13 | 31.39799 | -96.46902 | 29057 ft | 501 kts | 171° |
| 2026-05-05 16:14 | 31.33180 | -96.44423 | 30154 ft | 494 kts | 171° |
| 2026-05-05 16:14 | 31.26663 | -96.41977 | 31004 ft | 492 kts | 172° |
| 2026-05-05 16:15 | 31.20160 | -96.39555 | 31638 ft | 494 kts | 172° |
| 2026-05-05 16:15 | 31.13694 | -96.37147 | 32562 ft | 488 kts | 172° |
| 2026-05-05 16:16 | 31.07244 | -96.34740 | 33381 ft | 485 kts | 173° |
| 2026-05-05 16:16 | 31.00804 | -96.32355 | 33817 ft | 489 kts | 173° |
| 2026-05-05 16:17 | 30.94334 | -96.29955 | 34637 ft | 483 kts | 173° |
| 2026-05-05 16:17 | 30.91141 | -96.28770 | 34840 ft | 483 kts | 173° |
| 2026-05-05 16:18 | 30.81566 | -96.25224 | 34853 ft | 480 kts | 172° |
| 2026-05-05 16:19 | 30.71983 | -96.21686 | 34857 ft | 479 kts | 172° |
| 2026-05-05 16:19 | 30.62429 | -96.18166 | 34860 ft | 480 kts | 172° |
| 2026-05-05 16:20 | 30.49729 | -96.13495 | 34854 ft | 479 kts | 172° |
| 2026-05-05 16:22 | 30.33916 | -96.07501 | 34860 ft | 485 kts | 165° |
| 2026-05-05 16:22 | 30.28275 | -96.02970 | 34860 ft | 513 kts | 139° |
| 2026-05-05 16:23 | 30.24192 | -95.96084 | 34864 ft | 526 kts | 124° |
| 2026-05-05 16:23 | 30.18996 | -95.84940 | 34863 ft | 528 kts | 121° |
| 2026-05-05 16:24 | 30.15604 | -95.77434 | 34858 ft | 526 kts | 121° |
| 2026-05-05 16:25 | 30.10462 | -95.66222 | 34864 ft | 527 kts | 122° |
| 2026-05-05 16:25 | 30.05275 | -95.55080 | 34870 ft | 527 kts | 121° |
| 2026-05-05 16:26 | 29.98390 | -95.40248 | 34870 ft | 527 kts | 118° |
| 2026-05-05 16:27 | 29.95723 | -95.32367 | 34871 ft | 531 kts | 107° |
| 2026-05-05 16:27 | 29.94132 | -95.24084 | 34875 ft | 532 kts | 100° |
| 2026-05-05 16:28 | 29.93019 | -95.15677 | 34877 ft | 532 kts | 97° |
| 2026-05-05 16:28 | 29.92029 | -95.07233 | 34885 ft | 532 kts | 97° |
| 2026-05-05 16:29 | 29.91012 | -94.98814 | 34876 ft | 533 kts | 98° |
| 2026-05-05 16:29 | 29.89942 | -94.90398 | 34869 ft | 532 kts | 98° |
| 2026-05-05 16:30 | 29.88842 | -94.82026 | 34873 ft | 530 kts | 98° |
| 2026-05-05 16:30 | 29.87728 | -94.73659 | 34873 ft | 530 kts | 98° |
| 2026-05-05 16:31 | 29.86610 | -94.65310 | 34873 ft | 530 kts | 98° |
| 2026-05-05 16:31 | 29.85485 | -94.56928 | 34875 ft | 529 kts | 98° |
| 2026-05-05 16:32 | 29.84364 | -94.48602 | 34877 ft | 530 kts | 98° |
| 2026-05-05 16:32 | 29.83225 | -94.40210 | 34885 ft | 530 kts | 98° |
| 2026-05-05 16:33 | 29.82087 | -94.31852 | 34886 ft | 529 kts | 99° |
| 2026-05-05 16:33 | 29.80947 | -94.23515 | 34890 ft | 529 kts | 99° |
| 2026-05-05 16:34 | 29.79801 | -94.15188 | 34895 ft | 528 kts | 98° |
| 2026-05-05 16:34 | 29.78657 | -94.06903 | 34894 ft | 527 kts | 99° |
| 2026-05-05 16:35 | 29.77506 | -93.98602 | 34897 ft | 528 kts | 98° |
| 2026-05-05 16:35 | 29.76344 | -93.90259 | 34891 ft | 529 kts | 99° |
| 2026-05-05 16:36 | 29.75183 | -93.81966 | 34897 ft | 528 kts | 98° |
| 2026-05-05 16:36 | 29.74015 | -93.73658 | 34898 ft | 528 kts | 98° |
| 2026-05-05 16:37 | 29.72833 | -93.65293 | 34895 ft | 529 kts | 98° |
| 2026-05-05 16:37 | 29.71651 | -93.56966 | 34897 ft | 530 kts | 98° |
| 2026-05-05 16:38 | 29.70462 | -93.48644 | 34897 ft | 529 kts | 98° |
| 2026-05-05 16:38 | 29.69272 | -93.40343 | 34903 ft | 530 kts | 98° |
| 2026-05-05 16:39 | 29.68063 | -93.31962 | 34906 ft | 529 kts | 98° |
| 2026-05-05 16:39 | 29.66866 | -93.23681 | 34911 ft | 530 kts | 98° |
| 2026-05-05 16:40 | 29.65650 | -93.15318 | 34917 ft | 529 kts | 99° |
| 2026-05-05 16:40 | 29.64442 | -93.07031 | 34915 ft | 531 kts | 98° |
| 2026-05-05 16:41 | 29.63220 | -92.98689 | 34915 ft | 531 kts | 98° |
| 2026-05-05 16:41 | 29.61993 | -92.90367 | 34918 ft | 529 kts | 99° |
| 2026-05-05 16:42 | 29.60760 | -92.82053 | 34919 ft | 531 kts | 99° |
| 2026-05-05 16:42 | 29.59523 | -92.73722 | 34920 ft | 531 kts | 99° |
| 2026-05-05 16:43 | 29.58272 | -92.65353 | 34926 ft | 531 kts | 98° |
| 2026-05-05 16:43 | 29.57029 | -92.57062 | 34928 ft | 530 kts | 98° |
| 2026-05-05 16:44 | 29.55780 | -92.48776 | 34930 ft | 528 kts | 98° |
| 2026-05-05 16:44 | 29.54522 | -92.40477 | 34932 ft | 529 kts | 98° |
| 2026-05-05 16:45 | 29.53260 | -92.32188 | 34929 ft | 527 kts | 99° |
| 2026-05-05 16:45 | 29.52002 | -92.23941 | 34929 ft | 529 kts | 98° |
| 2026-05-05 16:46 | 29.50736 | -92.15676 | 34933 ft | 528 kts | 99° |
| 2026-05-05 16:46 | 29.49455 | -92.07370 | 34933 ft | 530 kts | 99° |
| 2026-05-05 16:47 | 29.48175 | -91.99097 | 34934 ft | 528 kts | 99° |
| 2026-05-05 16:47 | 29.46885 | -91.90792 | 34937 ft | 529 kts | 99° |
| 2026-05-05 16:48 | 29.45597 | -91.82535 | 34940 ft | 527 kts | 98° |
| 2026-05-05 16:48 | 29.44310 | -91.74313 | 34944 ft | 527 kts | 98° |
| 2026-05-05 16:49 | 29.43010 | -91.66039 | 34953 ft | 527 kts | 98° |
| 2026-05-05 16:49 | 29.41717 | -91.57841 | 34957 ft | 527 kts | 98° |
| 2026-05-05 16:50 | 29.40404 | -91.49565 | 34959 ft | 526 kts | 98° |
| 2026-05-05 16:50 | 29.39096 | -91.41352 | 34957 ft | 526 kts | 98° |
| 2026-05-05 16:51 | 29.37783 | -91.33140 | 34959 ft | 525 kts | 99° |
| 2026-05-05 16:51 | 29.36459 | -91.24902 | 34964 ft | 525 kts | 98° |
| 2026-05-05 16:52 | 29.35136 | -91.16702 | 34962 ft | 526 kts | 99° |
| 2026-05-05 16:52 | 29.33806 | -91.08482 | 34965 ft | 526 kts | 98° |
| 2026-05-05 16:53 | 29.32476 | -91.00313 | 34969 ft | 526 kts | 98° |
| 2026-05-05 16:53 | 29.31131 | -90.92085 | 34970 ft | 524 kts | 98° |
| 2026-05-05 16:54 | 29.29793 | -90.83912 | 34972 ft | 526 kts | 98° |
| 2026-05-05 16:54 | 29.28443 | -90.75690 | 34973 ft | 524 kts | 98° |
| 2026-05-05 16:55 | 29.27094 | -90.67514 | 34973 ft | 524 kts | 98° |
| 2026-05-05 16:55 | 29.25737 | -90.59332 | 34975 ft | 525 kts | 98° |
| 2026-05-05 16:56 | 29.24374 | -90.51149 | 34976 ft | 523 kts | 98° |
| 2026-05-05 16:56 | 29.23009 | -90.42987 | 34976 ft | 524 kts | 98° |
| 2026-05-05 16:57 | 29.21644 | -90.34856 | 34980 ft | 523 kts | 99° |
| 2026-05-05 16:57 | 29.20264 | -90.26650 | 34982 ft | 523 kts | 99° |
| 2026-05-05 16:58 | 29.18888 | -90.18520 | 34979 ft | 523 kts | 99° |
| 2026-05-05 16:58 | 29.17506 | -90.10371 | 34973 ft | 523 kts | 99° |
| 2026-05-05 16:59 | 29.15992 | -90.02232 | 34980 ft | 524 kts | 101° |
| 2026-05-05 16:59 | 29.14319 | -89.94164 | 34977 ft | 525 kts | 102° |
| 2026-05-05 17:00 | 29.12605 | -89.86059 | 34985 ft | 524 kts | 101° |
| 2026-05-05 17:00 | 29.10916 | -89.77999 | 34989 ft | 524 kts | 101° |
| 2026-05-05 17:01 | 29.09238 | -89.69908 | 34993 ft | 524 kts | 101° |
| 2026-05-05 17:01 | 29.07563 | -89.61809 | 34993 ft | 523 kts | 101° |
| 2026-05-05 17:02 | 29.05897 | -89.53767 | 34996 ft | 524 kts | 101° |
| 2026-05-05 17:02 | 29.04221 | -89.45694 | 35000 ft | 524 kts | 101° |
| 2026-05-05 17:03 | 29.02535 | -89.37596 | 35001 ft | 522 kts | 101° |
| 2026-05-05 17:03 | 29.00862 | -89.29573 | 35001 ft | 523 kts | 101° |
| 2026-05-05 17:04 | 28.99173 | -89.21525 | 35004 ft | 523 kts | 101° |
| 2026-05-05 17:04 | 28.97475 | -89.13454 | 35004 ft | 522 kts | 102° |
| 2026-05-05 17:05 | 28.95777 | -89.05405 | 35005 ft | 522 kts | 101° |
| 2026-05-05 17:05 | 28.94079 | -88.97389 | 35009 ft | 521 kts | 102° |
| 2026-05-05 17:06 | 28.92371 | -88.89354 | 35007 ft | 522 kts | 102° |
| 2026-05-05 17:06 | 28.90671 | -88.81368 | 35009 ft | 522 kts | 101° |
| 2026-05-05 17:07 | 28.88955 | -88.73339 | 35008 ft | 521 kts | 101° |
| 2026-05-05 17:07 | 28.87140 | -88.65314 | 35010 ft | 523 kts | 104° |
| 2026-05-05 17:08 | 28.84970 | -88.57388 | 35009 ft | 525 kts | 106° |
| 2026-05-05 17:08 | 28.82695 | -88.49544 | 35008 ft | 523 kts | 106° |
| 2026-05-05 17:09 | 28.80424 | -88.41662 | 35009 ft | 524 kts | 105° |
| 2026-05-05 17:09 | 28.78197 | -88.33815 | 35008 ft | 524 kts | 106° |
| 2026-05-05 17:10 | 28.75970 | -88.25893 | 35009 ft | 525 kts | 106° |
| 2026-05-05 17:10 | 28.73752 | -88.17977 | 35008 ft | 526 kts | 106° |
| 2026-05-05 17:11 | 28.71543 | -88.10105 | 35009 ft | 525 kts | 105° |
| 2026-05-05 17:11 | 28.69326 | -88.02222 | 35009 ft | 525 kts | 106° |
| 2026-05-05 17:12 | 28.67100 | -87.94329 | 35008 ft | 525 kts | 105° |
| 2026-05-05 17:12 | 28.64863 | -87.86423 | 35008 ft | 524 kts | 105° |
| 2026-05-05 17:13 | 28.62624 | -87.78530 | 35008 ft | 524 kts | 105° |
| 2026-05-05 17:13 | 28.60387 | -87.70659 | 35009 ft | 525 kts | 105° |
| 2026-05-05 17:14 | 28.58145 | -87.62795 | 35008 ft | 523 kts | 105° |
| 2026-05-05 17:14 | 28.55914 | -87.54989 | 35009 ft | 522 kts | 105° |
| 2026-05-05 17:15 | 28.53663 | -87.47124 | 35007 ft | 523 kts | 105° |
| 2026-05-05 17:15 | 28.51412 | -87.39287 | 35007 ft | 523 kts | 105° |
| 2026-05-05 17:16 | 28.49150 | -87.31427 | 35008 ft | 523 kts | 106° |
| 2026-05-05 17:16 | 28.46893 | -87.23607 | 35008 ft | 524 kts | 106° |
| 2026-05-05 17:17 | 28.44628 | -87.15772 | 35008 ft | 524 kts | 106° |
| 2026-05-05 17:17 | 28.42362 | -87.07958 | 35008 ft | 523 kts | 105° |
| 2026-05-05 17:18 | 28.40088 | -87.00135 | 35008 ft | 522 kts | 106° |
| 2026-05-05 17:18 | 28.37813 | -86.92323 | 35009 ft | 523 kts | 106° |
| 2026-05-05 17:19 | 28.35523 | -86.84488 | 35009 ft | 522 kts | 105° |
| 2026-05-05 17:19 | 28.33247 | -86.76711 | 35009 ft | 522 kts | 105° |
| 2026-05-05 17:20 | 28.30961 | -86.68926 | 35009 ft | 521 kts | 105° |
| 2026-05-05 17:20 | 28.28690 | -86.61159 | 35010 ft | 521 kts | 105° |
| 2026-05-05 17:21 | 28.26421 | -86.53379 | 35012 ft | 522 kts | 105° |
| 2026-05-05 17:22 | 28.23011 | -86.41724 | 35011 ft | 519 kts | 105° |
| 2026-05-05 17:22 | 28.20739 | -86.33989 | 35011 ft | 519 kts | 106° |
| 2026-05-05 17:23 | 28.18458 | -86.26244 | 35013 ft | 521 kts | 106° |
| 2026-05-05 17:23 | 28.16172 | -86.18507 | 35012 ft | 519 kts | 106° |
| 2026-05-05 17:24 | 28.13884 | -86.10770 | 35011 ft | 519 kts | 106° |
| 2026-05-05 17:24 | 28.11597 | -86.03057 | 35011 ft | 518 kts | 106° |
| 2026-05-05 17:25 | 28.09297 | -85.95322 | 35009 ft | 518 kts | 106° |
| 2026-05-05 17:25 | 28.06995 | -85.87606 | 35014 ft | 517 kts | 106° |
| 2026-05-05 17:26 | 28.04703 | -85.79932 | 35017 ft | 518 kts | 106° |
| 2026-05-05 17:26 | 28.02394 | -85.72221 | 35020 ft | 517 kts | 106° |
| 2026-05-05 17:27 | 28.00089 | -85.64537 | 35019 ft | 517 kts | 106° |
| 2026-05-05 17:27 | 27.97789 | -85.56887 | 35025 ft | 518 kts | 106° |
| 2026-05-05 17:28 | 27.95464 | -85.49176 | 35029 ft | 518 kts | 106° |
| 2026-05-05 17:28 | 27.93153 | -85.41534 | 35030 ft | 517 kts | 106° |
| 2026-05-05 17:29 | 27.90821 | -85.33833 | 35031 ft | 516 kts | 107° |
| 2026-05-05 17:29 | 27.88566 | -85.26184 | 35037 ft | 515 kts | 103° |
| 2026-05-05 17:30 | 27.86912 | -85.18371 | 35041 ft | 512 kts | 97° |
| 2026-05-05 17:30 | 27.85623 | -85.10471 | 35044 ft | 511 kts | 95° |
| 2026-05-05 17:31 | 27.84405 | -85.02572 | 35046 ft | 510 kts | 96° |
| 2026-05-05 17:31 | 27.83145 | -84.94686 | 35049 ft | 511 kts | 96° |
| 2026-05-05 17:32 | 27.81842 | -84.86846 | 35049 ft | 511 kts | 96° |
| 2026-05-05 17:32 | 27.80506 | -84.78950 | 35049 ft | 511 kts | 96° |
| 2026-05-05 17:33 | 27.79164 | -84.71079 | 35050 ft | 513 kts | 96° |
| 2026-05-05 17:33 | 27.77815 | -84.63222 | 35049 ft | 512 kts | 96° |
| 2026-05-05 17:34 | 27.76469 | -84.55398 | 35049 ft | 512 kts | 96° |
| 2026-05-05 17:34 | 27.75110 | -84.47513 | 35049 ft | 514 kts | 96° |
| 2026-05-05 17:35 | 27.73738 | -84.39594 | 35049 ft | 513 kts | 96° |
| 2026-05-05 17:35 | 27.72374 | -84.31730 | 35050 ft | 513 kts | 96° |
| 2026-05-05 17:36 | 27.71006 | -84.23878 | 35048 ft | 513 kts | 97° |
| 2026-05-05 17:36 | 27.69628 | -84.16001 | 35048 ft | 514 kts | 97° |
| 2026-05-05 17:37 | 27.68236 | -84.08073 | 35048 ft | 514 kts | 96° |
| 2026-05-05 17:37 | 27.66856 | -84.00238 | 35049 ft | 513 kts | 96° |
| 2026-05-05 17:38 | 27.65457 | -83.92320 | 35047 ft | 514 kts | 97° |
| 2026-05-05 17:38 | 27.64061 | -83.84448 | 35043 ft | 513 kts | 96° |
| 2026-05-05 17:39 | 27.62667 | -83.76605 | 35043 ft | 514 kts | 97° |
| 2026-05-05 17:39 | 27.61258 | -83.68720 | 35044 ft | 512 kts | 96° |
| 2026-05-05 17:40 | 27.59848 | -83.60857 | 35044 ft | 513 kts | 96° |
| 2026-05-05 17:40 | 27.58441 | -83.53024 | 35044 ft | 512 kts | 96° |
| 2026-05-05 17:41 | 27.57032 | -83.45187 | 35044 ft | 512 kts | 96° |
| 2026-05-05 17:41 | 27.55619 | -83.37376 | 35047 ft | 511 kts | 96° |
| 2026-05-05 17:42 | 27.54194 | -83.29530 | 35049 ft | 511 kts | 97° |
| 2026-05-05 17:42 | 27.52773 | -83.21714 | 35046 ft | 511 kts | 97° |
| 2026-05-05 17:43 | 27.51342 | -83.13893 | 35042 ft | 510 kts | 97° |
| 2026-05-05 17:43 | 27.49910 | -83.06096 | 35036 ft | 510 kts | 97° |
| 2026-05-05 17:44 | 27.48472 | -82.98273 | 35040 ft | 512 kts | 97° |
| 2026-05-05 17:44 | 27.47026 | -82.90443 | 35041 ft | 512 kts | 96° |
| 2026-05-05 17:45 | 27.45579 | -82.82636 | 35040 ft | 512 kts | 96° |
| 2026-05-05 17:45 | 27.44122 | -82.74798 | 35039 ft | 513 kts | 96° |
| 2026-05-05 17:46 | 27.42662 | -82.66973 | 35038 ft | 511 kts | 96° |
| 2026-05-05 17:46 | 27.41035 | -82.59203 | 35038 ft | 514 kts | 103° |
| 2026-05-05 17:47 | 27.38294 | -82.51726 | 35036 ft | 519 kts | 114° |
| 2026-05-05 17:47 | 27.34809 | -82.44621 | 35033 ft | 521 kts | 117° |
| 2026-05-05 17:48 | 27.31105 | -82.37633 | 35030 ft | 521 kts | 118° |
| 2026-05-05 17:48 | 27.27391 | -82.30681 | 35022 ft | 521 kts | 118° |
| 2026-05-05 17:49 | 27.23699 | -82.23708 | 35015 ft | 519 kts | 118° |
| 2026-05-05 17:49 | 27.20024 | -82.16719 | 35014 ft | 520 kts | 118° |
| 2026-05-05 17:50 | 27.16365 | -82.09731 | 35022 ft | 520 kts | 118° |
| 2026-05-05 17:50 | 27.12701 | -82.02733 | 35018 ft | 519 kts | 118° |
| 2026-05-05 17:51 | 27.09046 | -81.95761 | 35020 ft | 520 kts | 118° |
| 2026-05-05 17:51 | 27.05381 | -81.88792 | 35023 ft | 520 kts | 118° |
| 2026-05-05 17:52 | 27.01720 | -81.81837 | 35023 ft | 520 kts | 118° |
| 2026-05-05 17:52 | 26.98027 | -81.74835 | 35022 ft | 521 kts | 118° |
| 2026-05-05 17:53 | 26.94351 | -81.67877 | 35024 ft | 521 kts | 118° |
| 2026-05-05 17:53 | 26.90667 | -81.60919 | 35022 ft | 519 kts | 118° |
| 2026-05-05 17:54 | 26.87008 | -81.54021 | 35018 ft | 518 kts | 118° |
| 2026-05-05 17:54 | 26.83323 | -81.47086 | 35018 ft | 519 kts | 117° |
| 2026-05-05 17:55 | 26.79628 | -81.40138 | 35018 ft | 519 kts | 118° |
| 2026-05-05 17:55 | 26.75936 | -81.33206 | 35016 ft | 520 kts | 118° |
| 2026-05-05 17:56 | 26.72263 | -81.26320 | 35019 ft | 519 kts | 118° |
| 2026-05-05 17:56 | 26.68567 | -81.19400 | 35017 ft | 519 kts | 118° |
| 2026-05-05 17:57 | 26.64851 | -81.12456 | 35015 ft | 519 kts | 118° |
| 2026-05-05 17:57 | 26.61145 | -81.05536 | 35015 ft | 520 kts | 118° |
| 2026-05-05 17:58 | 26.57451 | -80.98653 | 35015 ft | 519 kts | 118° |
| 2026-05-05 17:58 | 26.53727 | -80.91728 | 35016 ft | 519 kts | 118° |
| 2026-05-05 17:59 | 26.50014 | -80.84826 | 35013 ft | 520 kts | 118° |
| 2026-05-05 17:59 | 26.46290 | -80.77916 | 35010 ft | 521 kts | 118° |
| 2026-05-05 18:00 | 26.42554 | -80.70996 | 35008 ft | 521 kts | 118° |
| 2026-05-05 18:00 | 26.38818 | -80.64089 | 35012 ft | 519 kts | 118° |
| 2026-05-05 18:01 | 26.35095 | -80.57217 | 35010 ft | 519 kts | 118° |
| 2026-05-05 18:01 | 26.31348 | -80.50307 | 35015 ft | 520 kts | 117° |
| 2026-05-05 18:02 | 26.27633 | -80.43470 | 35022 ft | 520 kts | 117° |
| 2026-05-05 18:02 | 26.23869 | -80.36549 | 35023 ft | 517 kts | 118° |
| 2026-05-05 18:03 | 26.20161 | -80.29745 | 35029 ft | 519 kts | 118° |
| 2026-05-05 18:03 | 26.16615 | -80.22734 | 35030 ft | 515 kts | 112° |
| 2026-05-05 18:04 | 26.13962 | -80.15378 | 35035 ft | 511 kts | 103° |
| 2026-05-05 18:04 | 26.11978 | -80.07800 | 35039 ft | 507 kts | 99° |
| 2026-05-05 18:05 | 26.10273 | -80.00223 | 35039 ft | 506 kts | 98° |
| 2026-05-05 18:05 | 26.08613 | -79.92652 | 35039 ft | 506 kts | 98° |
| 2026-05-05 18:06 | 26.06911 | -79.85038 | 35035 ft | 508 kts | 99° |
| 2026-05-05 18:06 | 26.05170 | -79.77414 | 35031 ft | 507 kts | 98° |
| 2026-05-05 18:07 | 26.03420 | -79.69855 | 35020 ft | 505 kts | 98° |
| 2026-05-05 18:07 | 26.01667 | -79.62320 | 35009 ft | 506 kts | 98° |
| 2026-05-05 18:08 | 25.99896 | -79.54733 | 35009 ft | 506 kts | 98° |
| 2026-05-05 18:08 | 25.98134 | -79.47197 | 35009 ft | 505 kts | 98° |
| 2026-05-05 18:09 | 25.96372 | -79.39685 | 35008 ft | 506 kts | 98° |
| 2026-05-05 18:09 | 25.94596 | -79.32107 | 35009 ft | 508 kts | 99° |
| 2026-05-05 18:10 | 25.92813 | -79.24528 | 35010 ft | 508 kts | 98° |
| 2026-05-05 18:10 | 25.91021 | -79.16950 | 35012 ft | 506 kts | 98° |
| 2026-05-05 18:11 | 25.89238 | -79.09417 | 35012 ft | 508 kts | 98° |
| 2026-05-05 18:11 | 25.87445 | -79.01848 | 35010 ft | 509 kts | 98° |
| 2026-05-05 18:12 | 25.85652 | -78.94295 | 35010 ft | 507 kts | 98° |
| 2026-05-05 18:12 | 25.83849 | -78.86730 | 35009 ft | 507 kts | 98° |
| 2026-05-05 18:13 | 25.82040 | -78.79166 | 35012 ft | 508 kts | 98° |
| 2026-05-05 18:13 | 25.80227 | -78.71592 | 35013 ft | 510 kts | 98° |
| 2026-05-05 18:14 | 25.78409 | -78.64035 | 35021 ft | 506 kts | 98° |
| 2026-05-05 18:14 | 25.76599 | -78.56522 | 35023 ft | 507 kts | 98° |
| 2026-05-05 18:15 | 25.74771 | -78.48950 | 35026 ft | 508 kts | 98° |
| 2026-05-05 18:15 | 25.72363 | -78.41470 | 35025 ft | 519 kts | 112° |
| 2026-05-05 18:16 | 25.68463 | -78.34674 | 35023 ft | 525 kts | 124° |
| 2026-05-05 18:16 | 25.63978 | -78.28297 | 35021 ft | 527 kts | 126° |
| 2026-05-05 18:17 | 25.59348 | -78.22062 | 35016 ft | 527 kts | 127° |
| 2026-05-05 18:17 | 25.54671 | -78.15775 | 35012 ft | 526 kts | 127° |
| 2026-05-05 18:18 | 25.50076 | -78.09538 | 35012 ft | 525 kts | 126° |
| 2026-05-05 18:18 | 25.45458 | -78.03223 | 35003 ft | 528 kts | 126° |
| 2026-05-05 18:19 | 25.40870 | -77.96938 | 35002 ft | 526 kts | 126° |
| 2026-05-05 18:19 | 25.36295 | -77.90669 | 34997 ft | 524 kts | 126° |
| 2026-05-05 18:20 | 25.31704 | -77.84390 | 34996 ft | 525 kts | 126° |
| 2026-05-05 18:20 | 25.27132 | -77.78137 | 34999 ft | 525 kts | 127° |
| 2026-05-05 18:21 | 25.22526 | -77.71852 | 34998 ft | 526 kts | 126° |
| 2026-05-05 18:21 | 25.17945 | -77.65613 | 35006 ft | 524 kts | 126° |
| 2026-05-05 18:22 | 25.13357 | -77.59372 | 35011 ft | 525 kts | 126° |
| 2026-05-05 18:22 | 25.08744 | -77.53104 | 35017 ft | 527 kts | 126° |
| 2026-05-05 18:23 | 25.04126 | -77.46826 | 35022 ft | 527 kts | 125° |
| 2026-05-05 18:23 | 24.99952 | -77.40243 | 35020 ft | 523 kts | 118° |
| 2026-05-05 18:24 | 24.96220 | -77.33395 | 35017 ft | 523 kts | 116° |
| 2026-05-05 18:24 | 24.92626 | -77.26427 | 35008 ft | 523 kts | 116° |
| 2026-05-05 18:25 | 24.89018 | -77.19482 | 35012 ft | 522 kts | 116° |
| 2026-05-05 18:25 | 24.85373 | -77.12592 | 35006 ft | 522 kts | 116° |
| 2026-05-05 18:26 | 24.81705 | -77.05734 | 35008 ft | 521 kts | 117° |
| 2026-05-05 18:26 | 24.77986 | -76.98817 | 35007 ft | 522 kts | 117° |
| 2026-05-05 18:27 | 24.74300 | -76.91981 | 35011 ft | 521 kts | 117° |
| 2026-05-05 18:27 | 24.70615 | -76.85153 | 35011 ft | 519 kts | 117° |
| 2026-05-05 18:28 | 24.65101 | -76.74941 | 35015 ft | 520 kts | 117° |
| 2026-05-05 18:28 | 24.61419 | -76.68142 | 35015 ft | 517 kts | 117° |
| 2026-05-05 18:29 | 24.57719 | -76.61311 | 35016 ft | 519 kts | 117° |
| 2026-05-05 18:29 | 24.54041 | -76.54529 | 35016 ft | 519 kts | 117° |
| 2026-05-05 18:30 | 24.50366 | -76.47765 | 35020 ft | 516 kts | 117° |
| 2026-05-05 18:30 | 24.46690 | -76.41010 | 35021 ft | 517 kts | 118° |
| 2026-05-05 18:31 | 24.43003 | -76.34248 | 35017 ft | 516 kts | 118° |
| 2026-05-05 18:31 | 24.39302 | -76.27465 | 35021 ft | 517 kts | 118° |
| 2026-05-05 18:32 | 24.35606 | -76.20702 | 35025 ft | 516 kts | 118° |
| 2026-05-05 18:32 | 24.31926 | -76.13975 | 35025 ft | 514 kts | 118° |
| 2026-05-05 18:33 | 24.28250 | -76.07268 | 35026 ft | 515 kts | 118° |
| 2026-05-05 18:33 | 24.24587 | -76.00594 | 35027 ft | 516 kts | 118° |
| 2026-05-05 18:34 | 24.20875 | -75.93836 | 35028 ft | 514 kts | 118° |
| 2026-05-05 18:34 | 24.17197 | -75.87152 | 35032 ft | 514 kts | 118° |
| 2026-05-05 18:35 | 24.13508 | -75.80454 | 35025 ft | 512 kts | 118° |
| 2026-05-05 18:35 | 24.09831 | -75.73792 | 35027 ft | 512 kts | 118° |
| 2026-05-05 18:36 | 24.06161 | -75.67148 | 35024 ft | 514 kts | 119° |
| 2026-05-05 18:36 | 24.02485 | -75.60505 | 35028 ft | 510 kts | 119° |
| 2026-05-05 18:37 | 23.98810 | -75.53876 | 35030 ft | 512 kts | 120° |
| 2026-05-05 18:37 | 23.95124 | -75.47237 | 35028 ft | 510 kts | 119° |
| 2026-05-05 18:38 | 23.91449 | -75.40620 | 35030 ft | 511 kts | 119° |
| 2026-05-05 18:38 | 23.87768 | -75.33999 | 35025 ft | 510 kts | 120° |
| 2026-05-05 18:39 | 23.84092 | -75.27397 | 35027 ft | 508 kts | 120° |
| 2026-05-05 18:39 | 23.80413 | -75.20802 | 35026 ft | 509 kts | 120° |
| 2026-05-05 18:40 | 23.76751 | -75.14247 | 35025 ft | 507 kts | 120° |
| 2026-05-05 18:40 | 23.73093 | -75.07713 | 35022 ft | 505 kts | 120° |
| 2026-05-05 18:41 | 23.69427 | -75.01168 | 35032 ft | 508 kts | 120° |
| 2026-05-05 18:41 | 23.65746 | -74.94597 | 35025 ft | 506 kts | 120° |
| 2026-05-05 18:42 | 23.62089 | -74.88078 | 35026 ft | 504 kts | 120° |
| 2026-05-05 18:42 | 23.58413 | -74.81532 | 35027 ft | 507 kts | 120° |
| 2026-05-05 18:43 | 23.54729 | -74.74990 | 35026 ft | 504 kts | 120° |
| 2026-05-05 18:43 | 23.51075 | -74.68510 | 35028 ft | 505 kts | 120° |
| 2026-05-05 18:44 | 23.47411 | -74.62015 | 35027 ft | 504 kts | 121° |
| 2026-05-05 18:44 | 23.43743 | -74.55523 | 35031 ft | 503 kts | 121° |
| 2026-05-05 18:45 | 23.40079 | -74.49049 | 35030 ft | 501 kts | 121° |
| 2026-05-05 18:45 | 23.36443 | -74.42632 | 35026 ft | 501 kts | 120° |
| 2026-05-05 18:46 | 23.32772 | -74.36166 | 35027 ft | 502 kts | 121° |
| 2026-05-05 18:46 | 23.29125 | -74.29751 | 35027 ft | 499 kts | 121° |
| 2026-05-05 18:47 | 23.25496 | -74.23370 | 35028 ft | 500 kts | 121° |
| 2026-05-05 18:47 | 23.21833 | -74.16933 | 35030 ft | 499 kts | 121° |
| 2026-05-05 18:48 | 23.18184 | -74.10532 | 35030 ft | 500 kts | 121° |
| 2026-05-05 18:48 | 23.14558 | -74.04179 | 35032 ft | 497 kts | 121° |
| 2026-05-05 18:49 | 23.10897 | -73.97774 | 35026 ft | 499 kts | 121° |
| 2026-05-05 18:49 | 23.07249 | -73.91398 | 35027 ft | 498 kts | 121° |
| 2026-05-05 18:50 | 23.03619 | -73.85066 | 35027 ft | 498 kts | 121° |
| 2026-05-05 18:50 | 22.99965 | -73.78697 | 35026 ft | 496 kts | 122° |
| 2026-05-05 18:51 | 22.96325 | -73.72359 | 35031 ft | 496 kts | 121° |
| 2026-05-05 18:51 | 22.92696 | -73.66046 | 35028 ft | 494 kts | 121° |
| 2026-05-05 18:52 | 22.89071 | -73.59751 | 35028 ft | 494 kts | 121° |
| 2026-05-05 18:52 | 22.85434 | -73.53443 | 35029 ft | 492 kts | 122° |
| 2026-05-05 18:53 | 22.81790 | -73.47131 | 35029 ft | 493 kts | 122° |
| 2026-05-05 18:53 | 22.78182 | -73.40890 | 35028 ft | 490 kts | 122° |
| 2026-05-05 18:54 | 22.74554 | -73.34624 | 35026 ft | 491 kts | 122° |
| 2026-05-05 18:54 | 22.70941 | -73.28388 | 35027 ft | 490 kts | 122° |
| 2026-05-05 18:55 | 22.67312 | -73.22131 | 35029 ft | 491 kts | 123° |
| 2026-05-05 18:55 | 22.63691 | -73.15899 | 35028 ft | 489 kts | 122° |
| 2026-05-05 18:56 | 22.60083 | -73.09695 | 35029 ft | 489 kts | 122° |
| 2026-05-05 18:56 | 22.56458 | -73.03467 | 35028 ft | 489 kts | 123° |
| 2026-05-05 18:57 | 22.52829 | -72.97241 | 35029 ft | 488 kts | 122° |
| 2026-05-05 18:57 | 22.49235 | -72.91081 | 35033 ft | 487 kts | 123° |
| 2026-05-05 18:58 | 22.45608 | -72.84875 | 35035 ft | 488 kts | 123° |
| 2026-05-05 18:58 | 22.42006 | -72.78716 | 35036 ft | 488 kts | 123° |
| 2026-05-05 18:59 | 22.38369 | -72.72505 | 35038 ft | 487 kts | 123° |
| 2026-05-05 18:59 | 22.34756 | -72.66344 | 35033 ft | 487 kts | 123° |
| 2026-05-05 19:00 | 22.31130 | -72.60166 | 35028 ft | 488 kts | 123° |
| 2026-05-05 19:00 | 22.27527 | -72.54034 | 35029 ft | 486 kts | 123° |
| 2026-05-05 19:01 | 22.23906 | -72.47880 | 35024 ft | 486 kts | 123° |
| 2026-05-05 19:01 | 22.20294 | -72.41747 | 35023 ft | 485 kts | 123° |
| 2026-05-05 19:02 | 22.16692 | -72.35638 | 35018 ft | 485 kts | 123° |
| 2026-05-05 19:02 | 22.13074 | -72.29511 | 35015 ft | 485 kts | 124° |
| 2026-05-05 19:03 | 22.09455 | -72.23389 | 35012 ft | 485 kts | 124° |
| 2026-05-05 19:03 | 22.05825 | -72.17255 | 35013 ft | 484 kts | 124° |
| 2026-05-05 19:04 | 22.02198 | -72.11136 | 35012 ft | 486 kts | 124° |
| 2026-05-05 19:04 | 21.98589 | -72.05048 | 35012 ft | 485 kts | 124° |
| 2026-05-05 19:05 | 21.94952 | -71.98920 | 35011 ft | 483 kts | 124° |
| 2026-05-05 19:05 | 21.91329 | -71.92825 | 35009 ft | 484 kts | 124° |
| 2026-05-05 19:06 | 21.87727 | -71.86771 | 35013 ft | 483 kts | 124° |
| 2026-05-05 19:06 | 21.84108 | -71.80695 | 35011 ft | 483 kts | 124° |
| 2026-05-05 19:07 | 21.80468 | -71.74593 | 35013 ft | 483 kts | 124° |
| 2026-05-05 19:07 | 21.76860 | -71.68552 | 35011 ft | 482 kts | 124° |
| 2026-05-05 19:08 | 21.73236 | -71.62489 | 35014 ft | 483 kts | 124° |
| 2026-05-05 19:08 | 21.69613 | -71.56435 | 35014 ft | 482 kts | 124° |
| 2026-05-05 19:09 | 21.65980 | -71.50372 | 35017 ft | 481 kts | 124° |
| 2026-05-05 19:09 | 21.62361 | -71.44338 | 35012 ft | 481 kts | 124° |
| 2026-05-05 19:10 | 21.58732 | -71.38297 | 35009 ft | 481 kts | 124° |
| 2026-05-05 19:10 | 21.55127 | -71.32297 | 35013 ft | 481 kts | 125° |
| 2026-05-05 19:11 | 21.51503 | -71.26274 | 35015 ft | 481 kts | 125° |
| 2026-05-05 19:11 | 21.47874 | -71.20251 | 35020 ft | 479 kts | 124° |
| 2026-05-05 19:12 | 21.44268 | -71.14273 | 35014 ft | 480 kts | 124° |
| 2026-05-05 19:12 | 21.40639 | -71.08263 | 35017 ft | 480 kts | 124° |
| 2026-05-05 19:13 | 21.37019 | -71.02275 | 35016 ft | 479 kts | 125° |
| 2026-05-05 19:13 | 21.33373 | -70.96249 | 35008 ft | 481 kts | 125° |
| 2026-05-05 19:14 | 21.29754 | -70.90273 | 35017 ft | 480 kts | 125° |
| 2026-05-05 19:14 | 21.26108 | -70.84261 | 35012 ft | 480 kts | 125° |
| 2026-05-05 19:15 | 21.22494 | -70.78307 | 35015 ft | 478 kts | 125° |
| 2026-05-05 19:15 | 21.18869 | -70.72341 | 35017 ft | 478 kts | 125° |
| 2026-05-05 19:16 | 21.15250 | -70.66393 | 35014 ft | 478 kts | 125° |
| 2026-05-05 19:16 | 21.11632 | -70.60452 | 35015 ft | 477 kts | 125° |
| 2026-05-05 19:17 | 21.07991 | -70.54479 | 35021 ft | 479 kts | 125° |
| 2026-05-05 19:17 | 21.04368 | -70.48541 | 35015 ft | 478 kts | 125° |
| 2026-05-05 19:18 | 21.00743 | -70.42608 | 35020 ft | 477 kts | 125° |
| 2026-05-05 19:18 | 20.97110 | -70.36669 | 35020 ft | 477 kts | 125° |
| 2026-05-05 19:19 | 20.93483 | -70.30746 | 35021 ft | 477 kts | 125° |
| 2026-05-05 19:19 | 20.89856 | -70.24828 | 35022 ft | 475 kts | 125° |
| 2026-05-05 19:20 | 20.86248 | -70.18947 | 35022 ft | 475 kts | 126° |
| 2026-05-05 19:20 | 20.82609 | -70.13022 | 35025 ft | 475 kts | 125° |
| 2026-05-05 19:21 | 20.79010 | -70.07167 | 35022 ft | 475 kts | 125° |
| 2026-05-05 19:21 | 20.75377 | -70.01262 | 35023 ft | 474 kts | 126° |
| 2026-05-05 19:22 | 20.71764 | -69.95399 | 35022 ft | 475 kts | 126° |
| 2026-05-05 19:22 | 20.68131 | -69.89509 | 35021 ft | 475 kts | 125° |
| 2026-05-05 19:23 | 20.64509 | -69.83641 | 35025 ft | 473 kts | 126° |
| 2026-05-05 19:23 | 20.60903 | -69.77804 | 35024 ft | 473 kts | 126° |
| 2026-05-05 19:24 | 20.57278 | -69.71942 | 35026 ft | 473 kts | 126° |
| 2026-05-05 19:24 | 20.53659 | -69.66100 | 35025 ft | 473 kts | 126° |
| 2026-05-05 19:25 | 20.50025 | -69.60237 | 35026 ft | 473 kts | 126° |
| 2026-05-05 19:25 | 20.46406 | -69.54406 | 35027 ft | 473 kts | 126° |
| 2026-05-05 19:26 | 20.42779 | -69.48565 | 35024 ft | 472 kts | 126° |
| 2026-05-05 19:26 | 20.39159 | -69.42742 | 35023 ft | 471 kts | 126° |
| 2026-05-05 19:27 | 20.35552 | -69.36947 | 35023 ft | 470 kts | 126° |
| 2026-05-05 19:27 | 20.31957 | -69.31175 | 35025 ft | 469 kts | 126° |
| 2026-05-05 19:28 | 20.28331 | -69.25361 | 35024 ft | 470 kts | 126° |
| 2026-05-05 19:28 | 20.24720 | -69.19576 | 35024 ft | 470 kts | 126° |
| 2026-05-05 19:29 | 20.21115 | -69.13808 | 35024 ft | 470 kts | 126° |
| 2026-05-05 19:29 | 20.17495 | -69.08021 | 35020 ft | 470 kts | 126° |
| 2026-05-05 19:30 | 20.13880 | -69.02245 | 35026 ft | 469 kts | 126° |
| 2026-05-05 19:30 | 20.10255 | -68.96461 | 35029 ft | 468 kts | 127° |
| 2026-05-05 19:31 | 20.06665 | -68.90740 | 35031 ft | 467 kts | 126° |
| 2026-05-05 19:31 | 20.03040 | -68.84968 | 35026 ft | 468 kts | 126° |
| 2026-05-05 19:32 | 19.99418 | -68.79206 | 35026 ft | 467 kts | 126° |
| 2026-05-05 19:32 | 19.95822 | -68.73492 | 35026 ft | 467 kts | 127° |
| 2026-05-05 19:33 | 19.92220 | -68.67771 | 35025 ft | 466 kts | 127° |
| 2026-05-05 19:33 | 19.88600 | -68.62029 | 35026 ft | 468 kts | 127° |
| 2026-05-05 19:34 | 19.84994 | -68.56313 | 35028 ft | 468 kts | 127° |
| 2026-05-05 19:35 | 19.79559 | -68.47712 | 35028 ft | 468 kts | 127° |
| 2026-05-05 19:35 | 19.75935 | -68.41981 | 35029 ft | 468 kts | 127° |
| 2026-05-05 19:36 | 19.72310 | -68.36253 | 35026 ft | 467 kts | 127° |
| 2026-05-05 19:36 | 19.68686 | -68.30534 | 35026 ft | 466 kts | 127° |
| 2026-05-05 19:37 | 19.65059 | -68.24819 | 35027 ft | 466 kts | 127° |
| 2026-05-05 19:37 | 19.61452 | -68.19138 | 35027 ft | 466 kts | 127° |
| 2026-05-05 19:38 | 19.57842 | -68.13458 | 35026 ft | 466 kts | 127° |
| 2026-05-05 19:38 | 19.54219 | -68.07761 | 35030 ft | 466 kts | 127° |
| 2026-05-05 19:39 | 19.50617 | -68.02104 | 35028 ft | 465 kts | 127° |
| 2026-05-05 19:39 | 19.47013 | -67.96450 | 35027 ft | 464 kts | 127° |
| 2026-05-05 19:40 | 19.43381 | -67.90759 | 35028 ft | 466 kts | 127° |
| 2026-05-05 19:40 | 19.39778 | -67.85115 | 35029 ft | 465 kts | 127° |
| 2026-05-05 19:41 | 19.36137 | -67.79421 | 35029 ft | 466 kts | 127° |
| 2026-05-05 19:41 | 19.32510 | -67.73752 | 35028 ft | 466 kts | 127° |
| 2026-05-05 19:42 | 19.28890 | -67.68096 | 35028 ft | 465 kts | 127° |
| 2026-05-05 19:42 | 19.25259 | -67.62430 | 35027 ft | 465 kts | 127° |
| 2026-05-05 19:43 | 19.21650 | -67.56805 | 35027 ft | 465 kts | 127° |
| 2026-05-05 19:43 | 19.18017 | -67.51146 | 35029 ft | 464 kts | 127° |
| 2026-05-05 19:44 | 19.14384 | -67.45496 | 35030 ft | 465 kts | 127° |
| 2026-05-05 19:44 | 19.10769 | -67.39876 | 35026 ft | 464 kts | 127° |
| 2026-05-05 19:45 | 19.07120 | -67.34209 | 35028 ft | 465 kts | 127° |
| 2026-05-05 19:45 | 19.03506 | -67.28599 | 35031 ft | 463 kts | 127° |
| 2026-05-05 19:46 | 18.99883 | -67.22984 | 35028 ft | 464 kts | 127° |
| 2026-05-05 19:46 | 18.96259 | -67.17371 | 35028 ft | 464 kts | 127° |
| 2026-05-05 19:47 | 18.92611 | -67.11728 | 35027 ft | 464 kts | 127° |
| 2026-05-05 19:47 | 18.88987 | -67.06123 | 35027 ft | 463 kts | 127° |
| 2026-05-05 19:48 | 18.85348 | -67.00501 | 35028 ft | 463 kts | 127° |
| 2026-05-05 19:48 | 18.81720 | -66.94903 | 35028 ft | 463 kts | 127° |
| 2026-05-05 19:49 | 18.78099 | -66.89318 | 35030 ft | 463 kts | 127° |
| 2026-05-05 19:49 | 18.74461 | -66.83714 | 35027 ft | 463 kts | 127° |
| 2026-05-05 19:50 | 18.70825 | -66.78118 | 35010 ft | 462 kts | 127° |
| 2026-05-05 19:50 | 18.69037 | -66.75365 | 34807 ft | 454 kts | 127° |
| 2026-05-05 19:50 | 18.67261 | -66.72629 | 34475 ft | 446 kts | 127° |
| 2026-05-05 19:50 | 18.65519 | -66.69948 | 34043 ft | 441 kts | 127° |
| 2026-05-05 19:51 | 18.63799 | -66.67303 | 33579 ft | 436 kts | 127° |
| 2026-05-05 19:51 | 18.62102 | -66.64696 | 33116 ft | 432 kts | 127° |
| 2026-05-05 19:51 | 18.60408 | -66.62096 | 32664 ft | 428 kts | 127° |
| 2026-05-05 19:51 | 18.58733 | -66.59526 | 32222 ft | 424 kts | 127° |
| 2026-05-05 19:52 | 18.57070 | -66.56975 | 31765 ft | 421 kts | 127° |
| 2026-05-05 19:52 | 18.55416 | -66.54439 | 31304 ft | 418 kts | 126° |
| 2026-05-05 19:52 | 18.53787 | -66.51943 | 30856 ft | 415 kts | 126° |
| 2026-05-05 19:52 | 18.52160 | -66.49450 | 30402 ft | 412 kts | 126° |
| 2026-05-05 19:53 | 18.50537 | -66.46966 | 29948 ft | 409 kts | 126° |
| 2026-05-05 19:53 | 18.48934 | -66.44512 | 29498 ft | 405 kts | 126° |
| 2026-05-05 19:53 | 18.47363 | -66.42108 | 29060 ft | 402 kts | 126° |
| 2026-05-05 19:53 | 18.45819 | -66.39674 | 28645 ft | 398 kts | 123° |
| 2026-05-05 19:54 | 18.44390 | -66.37192 | 28207 ft | 396 kts | 121° |
| 2026-05-05 19:54 | 18.43030 | -66.34688 | 27770 ft | 393 kts | 121° |
| 2026-05-05 19:54 | 18.41690 | -66.32169 | 27335 ft | 390 kts | 120° |
| 2026-05-05 19:54 | 18.40373 | -66.29697 | 26911 ft | 387 kts | 120° |
| 2026-05-05 19:55 | 18.39055 | -66.27240 | 26488 ft | 384 kts | 120° |
| 2026-05-05 19:55 | 18.37752 | -66.24832 | 26073 ft | 381 kts | 121° |
| 2026-05-05 19:55 | 18.36438 | -66.22419 | 25657 ft | 378 kts | 121° |
| 2026-05-05 19:55 | 18.35130 | -66.20029 | 25230 ft | 376 kts | 120° |
| 2026-05-05 19:56 | 18.33834 | -66.17667 | 24808 ft | 373 kts | 120° |
| 2026-05-05 19:56 | 18.32546 | -66.15326 | 24385 ft | 371 kts | 120° |
| 2026-05-05 19:56 | 18.31245 | -66.12965 | 23960 ft | 368 kts | 120° |
| 2026-05-05 19:56 | 18.29984 | -66.10679 | 23541 ft | 365 kts | 120° |
| 2026-05-05 19:57 | 18.28701 | -66.08353 | 23121 ft | 362 kts | 120° |
| 2026-05-05 19:57 | 18.27459 | -66.06102 | 22708 ft | 360 kts | 120° |
| 2026-05-05 19:57 | 18.26208 | -66.03835 | 22300 ft | 357 kts | 120° |
| 2026-05-05 19:57 | 18.24966 | -66.01587 | 21886 ft | 355 kts | 120° |
| 2026-05-05 19:58 | 18.23731 | -65.99350 | 21477 ft | 353 kts | 120° |
| 2026-05-05 19:58 | 18.22491 | -65.97105 | 21079 ft | 351 kts | 120° |
| 2026-05-05 19:58 | 18.21281 | -65.94916 | 20673 ft | 349 kts | 120° |
| 2026-05-05 19:58 | 18.20066 | -65.92718 | 20256 ft | 347 kts | 120° |
| 2026-05-05 19:59 | 18.18854 | -65.90527 | 19863 ft | 345 kts | 120° |
| 2026-05-05 19:59 | 18.17654 | -65.88358 | 19480 ft | 344 kts | 120° |
| 2026-05-05 19:59 | 18.16461 | -65.86202 | 19070 ft | 342 kts | 120° |
| 2026-05-05 19:59 | 18.15270 | -65.84051 | 18662 ft | 341 kts | 120° |
| 2026-05-05 20:00 | 18.14084 | -65.81908 | 18241 ft | 340 kts | 120° |
| 2026-05-05 20:00 | 18.12895 | -65.79758 | 17817 ft | 338 kts | 120° |
| 2026-05-05 20:00 | 18.11714 | -65.77625 | 17409 ft | 337 kts | 120° |
| 2026-05-05 20:00 | 18.10545 | -65.75517 | 17080 ft | 332 kts | 120° |
| 2026-05-05 20:01 | 18.09376 | -65.73410 | 16552 ft | 335 kts | 120° |
| 2026-05-05 20:01 | 18.08209 | -65.71306 | 16126 ft | 333 kts | 120° |
| 2026-05-05 20:01 | 18.07049 | -65.69217 | 15729 ft | 331 kts | 120° |
| 2026-05-05 20:01 | 18.05898 | -65.67143 | 15333 ft | 329 kts | 120° |
| 2026-05-05 20:02 | 18.04750 | -65.65076 | 14939 ft | 327 kts | 120° |
| 2026-05-05 20:02 | 18.03606 | -65.63018 | 14543 ft | 325 kts | 120° |
| 2026-05-05 20:02 | 18.02472 | -65.60976 | 14152 ft | 323 kts | 120° |
| 2026-05-05 20:02 | 18.01347 | -65.58954 | 13762 ft | 320 kts | 120° |
| 2026-05-05 20:03 | 18.00237 | -65.56958 | 13385 ft | 318 kts | 120° |
| 2026-05-05 20:03 | 17.99119 | -65.54947 | 13000 ft | 316 kts | 120° |
| 2026-05-05 20:03 | 17.98016 | -65.52966 | 12617 ft | 313 kts | 120° |
| 2026-05-05 20:03 | 17.96923 | -65.51002 | 12246 ft | 311 kts | 120° |
| 2026-05-05 20:04 | 17.95842 | -65.49063 | 11866 ft | 309 kts | 120° |
| 2026-05-05 20:04 | 17.94752 | -65.47105 | 11489 ft | 307 kts | 120° |
| 2026-05-05 20:04 | 17.93683 | -65.45185 | 11118 ft | 305 kts | 120° |
| 2026-05-05 20:04 | 17.92613 | -65.43266 | 10742 ft | 303 kts | 120° |
| 2026-05-05 20:05 | 17.91557 | -65.41372 | 10365 ft | 301 kts | 120° |
| 2026-05-05 20:05 | 17.90508 | -65.39489 | 10007 ft | 298 kts | 120° |
| 2026-05-05 20:05 | 17.89475 | -65.37637 | 9878 ft | 287 kts | 120° |
| 2026-05-05 20:05 | 17.88486 | -65.35863 | 9535 ft | 286 kts | 120° |
| 2026-05-05 20:06 | 17.87470 | -65.34065 | 9183 ft | 284 kts | 122° |
| 2026-05-05 20:06 | 17.86375 | -65.32344 | 8834 ft | 280 kts | 125° |
| 2026-05-05 20:06 | 17.85248 | -65.30724 | 8534 ft | 268 kts | 126° |
| 2026-05-05 20:06 | 17.84152 | -65.29198 | 8224 ft | 259 kts | 127° |
| 2026-05-05 20:07 | 17.83090 | -65.27712 | 7925 ft | 251 kts | 126° |
| 2026-05-05 20:07 | 17.82063 | -65.26258 | 7609 ft | 244 kts | 126° |
| 2026-05-05 20:07 | 17.81070 | -65.24843 | 7317 ft | 236 kts | 126° |
| 2026-05-05 20:07 | 17.80115 | -65.23477 | 7035 ft | 231 kts | 125° |
| 2026-05-05 20:08 | 17.79162 | -65.22115 | 6764 ft | 233 kts | 125° |
| 2026-05-05 20:08 | 17.78208 | -65.20751 | 6470 ft | 232 kts | 125° |
| 2026-05-05 20:08 | 17.77257 | -65.19393 | 6192 ft | 231 kts | 125° |
| 2026-05-05 20:08 | 17.76316 | -65.18049 | 5924 ft | 229 kts | 125° |
| 2026-05-05 20:09 | 17.75365 | -65.16691 | 5638 ft | 229 kts | 125° |
| 2026-05-05 20:09 | 17.74422 | -65.15344 | 5354 ft | 228 kts | 125° |
| 2026-05-05 20:09 | 17.73486 | -65.14009 | 5074 ft | 227 kts | 125° |
| 2026-05-05 20:09 | 17.72552 | -65.12676 | 4797 ft | 227 kts | 125° |
| 2026-05-05 20:10 | 17.71615 | -65.11340 | 4518 ft | 226 kts | 125° |
| 2026-05-05 20:10 | 17.70686 | -65.10014 | 4232 ft | 226 kts | 125° |
| 2026-05-05 20:10 | 17.69764 | -65.08699 | 3956 ft | 225 kts | 125° |
| 2026-05-05 20:10 | 17.68836 | -65.07376 | 3651 ft | 224 kts | 125° |
| 2026-05-05 20:11 | 17.67985 | -65.06048 | 3479 ft | 211 kts | 116° |
| 2026-05-05 20:11 | 17.67616 | -65.04647 | 3397 ft | 199 kts | 90° |
| 2026-05-05 20:11 | 17.67764 | -65.03228 | 3218 ft | 194 kts | 83° |
| 2026-05-05 20:11 | 17.67953 | -65.01817 | 2984 ft | 193 kts | 84° |
| 2026-05-05 20:12 | 17.68101 | -65.00444 | 2788 ft | 190 kts | 85° |
| 2026-05-05 20:12 | 17.68240 | -64.99058 | 2618 ft | 189 kts | 85° |
| 2026-05-05 20:12 | 17.68375 | -64.97726 | 2487 ft | 179 kts | 85° |
| 2026-05-05 20:12 | 17.68504 | -64.96456 | 2360 ft | 172 kts | 85° |
| 2026-05-05 20:13 | 17.68631 | -64.95209 | 2227 ft | 174 kts | 85° |
| 2026-05-05 20:13 | 17.68760 | -64.93951 | 2076 ft | 172 kts | 85° |
| 2026-05-05 20:13 | 17.68882 | -64.92753 | 1902 ft | 157 kts | 86° |
| 2026-05-05 20:13 | 17.68993 | -64.91670 | 1779 ft | 143 kts | 86° |
| 2026-05-05 20:14 | 17.69098 | -64.90628 | 1637 ft | 142 kts | 86° |
| 2026-05-05 20:14 | 17.69200 | -64.89594 | 1527 ft | 142 kts | 86° |
| 2026-05-05 20:14 | 17.69294 | -64.88563 | 1362 ft | 145 kts | 87° |
| 2026-05-05 20:14 | 17.69385 | -64.87516 | 1171 ft | 143 kts | 87° |
| 2026-05-05 20:15 | 17.69496 | -64.86470 | 964 ft | 144 kts | 85° |
| 2026-05-05 20:15 | 17.69630 | -64.85441 | 705 ft | 143 kts | 85° |
| 2026-05-05 20:15 | 17.69749 | -64.84403 | 537 ft | 141 kts | 86° |
| 2026-05-05 20:15 | 17.69841 | -64.83363 | 372 ft | 145 kts | 87° |
| 2026-05-05 20:16 | 17.69941 | -64.82313 | 177 ft | 142 kts | 86° |
| 2026-05-05 20:16 | 17.70054 | -64.81270 | 87 ft | 144 kts | 86° |
| 2026-05-05 20:16 | 17.70133 | -64.80397 | 67 ft | 91 kts | 83° |
| 2026-05-05 20:16 | 17.70179 | -64.79926 | 60 ft | 51 kts | 83° |
| 2026-05-05 20:17 | 17.70215 | -64.79559 | 60 ft | 43 kts | 83° |
| 2026-05-05 20:17 | 17.70226 | -64.79400 | 57 ft | 13 kts | 104° |
| 2026-05-05 20:17 | 17.70172 | -64.79334 | 54 ft | 10 kts | 167° |
| 2026-05-05 20:17 | 17.70108 | -64.79339 | 52 ft | 6 kts | 219° |
| 2026-05-05 20:18 | 17.70097 | -64.79385 | 52 ft | 9 kts | 265° |
| 2026-05-05 20:18 | 17.70085 | -64.79468 | 53 ft | 10 kts | 261° |
| 2026-05-05 20:18 | 17.70069 | -64.79524 | 53 ft | 7 kts | 220° |
| 2026-05-05 20:18 | 17.70005 | -64.79521 | 51 ft | 9 kts | 172° |
| 2026-05-05 20:19 | 17.69950 | -64.79517 | 49 ft | 7 kts | 179° |
| 2026-05-05 20:19 | 17.69929 | -64.79517 | 48 ft | 1 kts | 194° |
| 2026-05-05 20:19 | 17.69918 | -64.79530 | 47 ft | 4 kts | 239° |
| 2026-05-05 20:19 | 17.69913 | -64.79542 | 47 ft | 1 kts | 255° |
| 2026-05-05 20:20 | 17.69910 | -64.79554 | 47 ft | 1 kts | 259° |
| 2026-05-05 20:20 | 17.69910 | -64.79557 | 47 ft | 0 kts | 259° |